臺北終端管制區 - 松西席

METAR RCSS 251100Z 08010KT 9999 -RA FEW007 BKN015 BKN030 25/24 Q1010 NOSIG RMK A2985 RA AMT 0.2MM=

站台狀態:Offline
最後更新:2022-09-25 19:00:01